Data for 12/27/2014

Time Sea-Level Adjusted Pressure Absolute Pressure Temperature Relative Humidity Dew Point   
(mb) (inHg) (mb) (inHg) (C) (F) (%) (C) (F)
00:05 1021 30.15 850 25.1 -10.6 12.9 90 -11.9 10.6
00:10 1021 30.15 850 25.1 -10.6 12.9 89 -12.1 10.3
00:15 1021 30.15 850 25.1 -10.7 12.8 90 -12 10.4
00:20 1021 30.15 850 25.1 -10.6 13 89 -12.1 10.3
00:25 1021 30.15 850 25.1 -10.5 13.1 88 -12.2 10.1
00:30 1021 30.15 850 25.1 -10.5 13.1 87 -12.3 9.8
00:35 1021 30.15 850 25.1 -10.6 13 86 -12.5 9.5
00:40 1021 30.15 850 25.1 -10.6 13 84 -12.8 9
00:45 1021 30.15 850 25.1 -11 12.1 82 -13.6 7.6
00:50 1021 30.15 850 25.1 -12.1 10.3 86 -14 6.8
00:55 1021 30.15 850 25.1 -12.2 10 88 -13.8 7.1
01:00 1021 30.15 850 25.1 -11.9 10.7 88 -13.4 7.8
01:05 1021 30.15 850 25.1 -11.5 11.4 86 -13.3 8.1
01:10 1020 30.12 850 25.1 -11.3 11.7 85 -13.4 8
01:15 1020 30.12 850 25.1 -11.1 12 83 -13.5 7.8
01:20 1020 30.12 850 25.1 -11.1 12.1 82 -13.6 7.5
01:25 1020 30.12 850 25.1 -11.3 11.6 80 -14.2 6.4
01:30 1020 30.12 850 25.1 -12.2 10 84 -14.4 6.1
01:35 1020 30.12 850 25.1 -12.3 9.9 88 -13.9 6.9
01:40 1020 30.12 850 25.1 -12 10.4 85 -14 6.8
01:45 1020 30.12 850 25.1 -12 10.3 87 -13.8 7.1
01:50 1020 30.12 849 25.07 -12.1 10.2 87 -13.8 7.1
01:55 1020 30.12 849 25.07 -12.2 10 89 -13.7 7.3
02:00 1020 30.12 849 25.07 -12.3 9.9 88 -13.9 7
02:05 1020 30.12 849 25.07 -12.3 9.9 88 -13.9 7
02:10 1020 30.12 849 25.07 -12.1 10.2 89 -13.6 7.5
02:15 1020 30.12 849 25.07 -11.6 11.1 78 -14.7 5.6
02:20 1020 30.12 849 25.07 -11.1 12 77 -14.4 6.2
02:25 1020 30.12 849 25.07 -11.6 11.2 82 -14 6.7
02:30 1020 30.12 849 25.07 -11.9 10.6 85 -13.9 7
02:35 1020 30.12 849 25.07 -12 10.3 87 -13.8 7.1
02:40 1020 30.12 849 25.07 -11.8 10.7 83 -14.1 6.6
02:45 1020 30.12 849 25.07 -12.1 10.3 87 -13.8 7.2
02:50 1020 30.12 849 25.07 -11.5 11.3 86 -13.4 7.9
02:55 1020 30.12 849 25.07 -10.9 12.3 83 -13.2 8.2
03:00 1020 30.12 849 25.07 -11 12.1 82 -13.5 7.7
03:05 1020 30.12 849 25.07 -11.5 11.4 83 -13.7 7.3
03:10 1020 30.12 849 25.07 -11.7 11 84 -13.8 7.2
03:15 1020 30.12 849 25.07 -11.9 10.6 85 -14 6.9
03:20 1020 30.12 849 25.07 -12.1 10.2 84 -14.3 6.2
03:25 1020 30.12 849 25.07 -12.3 9.8 86 -14.3 6.3
03:30 1020 30.12 850 25.1 -12.4 9.7 83 -14.7 5.6
03:35 1020 30.12 850 25.1 -12.7 9.2 85 -14.7 5.5
03:40 1020 30.12 850 25.1 -12.5 9.5 86 -14.4 6.1
03:45 1020 30.12 850 25.1 -12.2 10 84 -14.4 6
03:50 1020 30.12 850 25.1 -12.5 9.5 84 -14.7 5.6
03:55 1020 30.12 850 25.1 -12.9 8.8 84 -15 5
04:00 1020 30.12 850 25.1 -13 8.6 85 -15.1 4.9
04:05 1020 30.12 849 25.07 -13.3 8 85 -15.3 4.4
04:10 1020 30.12 849 25.07 -13.5 7.7 89 -14.9 5.1
04:15 1020 30.12 849 25.07 -12.9 8.9 88 -14.4 6.1
04:20 1020 30.12 849 25.07 -12.2 10.1 80 -14.9 5.2
04:25 1020 30.12 849 25.07 -11.9 10.5 78 -15 5
04:30 1020 30.12 849 25.07 -12.3 9.8 79 -15.3 4.5
04:35 1020 30.12 849 25.07 -12.6 9.3 80 -15.4 4.3
04:40 1020 30.12 849 25.07 -12.6 9.3 79 -15.5 4.1
04:45 1020 30.12 849 25.07 -13 8.6 79 -16 3.3
04:50 1020 30.12 849 25.07 -13.3 8.1 83 -15.5 4
04:55 1020 30.12 849 25.07 -13.1 8.5 81 -15.7 3.7
05:00 1020 30.12 849 25.07 -13 8.6 81 -15.6 3.9
05:05 1020 30.12 849 25.07 -12.3 9.8 77 -15.6 3.9
05:10 1020 30.12 849 25.07 -11.5 11.3 71 -15.8 3.5
05:15 1020 30.12 849 25.07 -11.5 11.4 69 -16 3.2
05:20 1020 30.12 849 25.07 -11.8 10.8 71 -16 3.1
05:25 1020 30.12 849 25.07 -12.4 9.8 73 -16.3 2.7
05:30 1020 30.12 849 25.07 -12.6 9.3 74 -16.2 2.8
05:35 1020 30.12 850 25.1 -12.6 9.3 77 -15.9 3.4
05:40 1020 30.12 849 25.07 -12.8 8.9 78 -15.8 3.5
05:45 1020 30.12 849 25.07 -13.2 8.2 79 -16.2 2.9
05:50 1020 30.12 849 25.07 -13.5 7.7 79 -16.3 2.6
05:55 1020 30.12 849 25.07 -13.5 7.8 78 -16.5 2.4
06:00 1020 30.12 849 25.07 -13.2 8.2 78 -16.3 2.7
06:05 1020 30.12 849 25.07 -13 8.6 78 -16.2 2.9
06:10 1020 30.12 849 25.07 -13.3 8.1 78 -16.3 2.7
06:15 1020 30.12 849 25.07 -13.3 8.1 78 -16.4 2.6
06:20 1020 30.12 849 25.07 -13.3 8.2 80 -16.1 3.1
06:25 1020 30.12 849 25.07 -13 8.7 80 -15.8 3.6
06:30 1020 30.12 849 25.07 -12.5 9.4 76 -15.9 3.4
06:35 1020 30.12 850 25.1 -12.2 10.1 74 -16 3.2
06:40 1020 30.12 850 25.1 -12.6 9.3 74 -16.3 2.7
06:45 1020 30.12 850 25.1 -12.5 9.4 74 -16.3 2.7
06:50 1021 30.15 850 25.1 -12.5 9.6 73 -16.3 2.7
06:55 1021 30.15 850 25.1 -12.7 9.1 75 -16.4 2.5
07:00 1021 30.15 850 25.1 -12.8 8.9 74 -16.6 2.2
07:05 1021 30.15 850 25.1 -12.5 9.4 73 -16.5 2.3
07:10 1021 30.15 850 25.1 -12.6 9.3 73 -16.5 2.3
07:15 1021 30.15 850 25.1 -12.8 9 75 -16.4 2.5
07:20 1021 30.15 850 25.1 -12.9 8.8 77 -16.1 2.9
07:25 1021 30.15 850 25.1 -13.1 8.4 78 -16.2 2.9
07:30 1021 30.15 850 25.1 -13 8.7 77 -16.2 2.8
07:35 1021 30.15 850 25.1 -12.8 8.9 74 -16.5 2.3
07:40 1021 30.15 850 25.1 -12.6 9.4 74 -16.3 2.7
07:45 1021 30.15 850 25.1 -12.5 9.5 74 -16.2 2.8
07:50 1021 30.15 850 25.1 -12.4 9.7 75 -16 3.3
07:55 1021 30.15 850 25.1 -11.9 10.6 74 -15.7 3.8
08:00 1021 30.15 850 25.1 -11.8 10.8 74 -15.5 4.1
08:05 1021 30.15 850 25.1 -12 10.5 75 -15.6 3.9
08:10 1021 30.15 850 25.1 -11.6 11.1 74 -15.3 4.4
08:15 1021 30.15 850 25.1 -11 12.2 72 -15.1 4.9
08:20 1021 30.15 850 25.1 -11.2 11.8 73 -15.1 4.8
08:25 1021 30.15 850 25.1 -11.3 11.8 75 -14.9 5.3
08:30 1021 30.15 850 25.1 -11 12.2 74 -14.8 5.3
08:35 1021 30.15 850 25.1 -11 12.1 74 -14.8 5.4
08:40 1021 30.15 850 25.1 -11.3 11.7 74 -15 4.9
08:45 1021 30.15 850 25.1 -11.6 11.1 76 -15 4.9
08:50 1021 30.15 850 25.1 -11.9 10.6 77 -15.2 4.7
08:55 1021 30.15 850 25.1 -12 10.5 77 -15.2 4.6
09:00 1021 30.15 850 25.1 -12 10.3 77 -15.2 4.6
09:05 1021 30.15 850 25.1 -11.9 10.7 77 -15.1 4.8
09:10 1021 30.15 850 25.1 -11.7 11 76 -15.1 4.9
09:15 1021 30.15 850 25.1 -11.6 11.1 77 -14.9 5.1
09:20 1021 30.15 850 25.1 -11.5 11.2 75 -15.1 4.9
09:25 1021 30.15 850 25.1 -11.6 11.1 77 -14.9 5.2
09:30 1021 30.15 850 25.1 -11.5 11.3 75 -15 4.9
09:35 1021 30.15 850 25.1 -11.6 11.2 78 -14.7 5.5
09:40 1021 30.15 850 25.1 -11.4 11.4 74 -15.1 4.7
09:45 1021 30.15 850 25.1 -11.1 12 74 -14.8 5.3
09:50 1021 30.15 850 25.1 -11 12.2 77 -14.3 6.2
09:55 1021 30.15 850 25.1 -11.2 11.8 79 -14.1 6.6
10:00 1021 30.15 850 25.1 -11.1 12 78 -14.3 6.3
10:05 1021 30.15 850 25.1 -10.6 13 74 -14.4 6
10:10 1021 30.15 850 25.1 -10.3 13.4 76 -13.9 7.1
10:15 1021 30.15 850 25.1 -10.6 13 77 -13.9 7
10:20 1021 30.15 850 25.1 -10.5 13.1 77 -13.9 7.1
10:25 1021 30.15 850 25.1 -10.4 13.3 78 -13.5 7.6
10:30 1021 30.15 850 25.1 -10.3 13.6 77 -13.5 7.7
10:35 1021 30.15 850 25.1 -10 14 76 -13.5 7.7
10:40 1021 30.15 850 25.1 -9.7 14.6 76 -13.1 8.4
10:45 1021 30.15 850 25.1 -9.5 14.9 76 -12.9 8.8
10:50 1021 30.15 850 25.1 -9.5 14.9 76 -13 8.5
10:55 1021 30.15 850 25.1 -9.8 14.4 79 -12.8 8.9
11:00 1021 30.15 850 25.1 -9.9 14.2 78 -13 8.5
11:05 1021 30.15 850 25.1 -9.7 14.5 78 -12.8 8.9
11:10 1021 30.15 850 25.1 -9.4 15 77 -12.8 9
11:15 1021 30.15 850 25.1 -9.2 15.5 75 -12.8 8.9
11:20 1021 30.15 850 25.1 -9.2 15.5 76 -12.7 9.1
11:25 1021 30.15 850 25.1 -9.2 15.4 76 -12.7 9.2
11:30 1021 30.15 850 25.1 -9.2 15.5 75 -12.8 9
11:35 1021 30.15 850 25.1 -9 15.8 76 -12.5 9.4
11:40 1020 30.12 850 25.1 -8.6 16.5 75 -12.3 9.8
11:45 1020 30.12 850 25.1 -8.5 16.8 75 -12.2 10.1
11:50 1020 30.12 850 25.1 -8.2 17.3 74 -12 10.4
11:55 1020 30.12 850 25.1 -8.1 17.4 74 -12 10.5
12:00 1020 30.12 849 25.07 -8 17.5 74 -11.9 10.6
12:05 1020 30.12 849 25.07 -7.9 17.7 74 -11.7 10.9
12:10 1020 30.12 849 25.07 -7.8 17.9 74 -11.7 11
12:15 1020 30.12 849 25.07 -7.7 18.1 75 -11.4 11.4
12:20 1020 30.12 849 25.07 -7.7 18.2 75 -11.4 11.5
12:25 1020 30.12 849 25.07 -7.4 18.6 73 -11.4 11.5
12:30 1020 30.12 849 25.07 -7.1 19.2 74 -11.1 12.1
12:35 1020 30.12 849 25.07 -7.1 19.3 73 -11.1 12
12:40 1019 30.09 849 25.07 -7.1 19.3 74 -11 12.2
12:45 1019 30.09 849 25.07 -7 19.3 72 -11.2 11.8
12:50 1019 30.09 849 25.07 -7.1 19.2 73 -11.2 11.8
12:55 1019 30.09 849 25.07 -7 19.5 72 -11.3 11.7
13:00 1019 30.09 848 25.04 -7 19.5 72 -11.2 11.9
13:05 1019 30.09 848 25.04 -6.8 19.8 71 -11.2 11.8
13:10 1019 30.09 848 25.04 -6.5 20.4 69 -11.3 11.6
13:15 1019 30.09 848 25.04 -5.6 22 65 -11.2 11.8
13:20 1019 30.09 848 25.04 -5.9 21.5 67 -11 12.2
13:25 1019 30.09 848 25.04 -5.8 21.5 66 -11.2 11.8
13:30 1019 30.09 848 25.04 -5.8 21.6 65 -11.3 11.6
13:35 1019 30.09 848 25.04 -5.2 22.6 65 -10.9 12.3
13:40 1019 30.09 848 25.04 -5.1 22.8 66 -10.6 12.9
13:45 1019 30.09 848 25.04 -5.4 22.2 66 -10.8 12.5
13:50 1019 30.09 848 25.04 -5.1 22.9 63 -11.1 12
13:55 1019 30.09 848 25.04 -4.7 23.5 62 -11 12.1
14:00 1019 30.09 848 25.04 -5.2 22.6 64 -11 12.2
14:05 1019 30.09 848 25.04 -4.6 23.8 59 -11.4 11.5
14:10 1019 30.09 848 25.04 -3.8 25.2 58 -11 12.2
14:15 1018 30.06 848 25.04 -3.6 25.6 56 -11.2 11.8
14:20 1018 30.06 848 25.04 -3.7 25.3 57 -11.1 12
14:25 1018 30.06 848 25.04 -3.8 25.2 57 -11.2 11.8
14:30 1018 30.06 848 25.04 -3.9 25.1 58 -11 12.2
14:35 1018 30.06 848 25.04 -3.9 24.9 59 -10.9 12.5
14:40 1018 30.06 848 25.04 -4.3 24.3 61 -10.8 12.6
14:45 1018 30.06 848 25.04 -4.9 23.2 62 -11.1 12.1
14:50 1018 30.06 847 25.01 -5 22.9 64 -10.9 12.5
14:55 1018 30.06 847 25.01 -5.3 22.4 65 -11 12.2
15:00 1018 30.06 847 25.01 -5.5 22.1 64 -11.2 11.9
15:05 1018 30.06 847 25.01 -5.2 22.7 64 -11 12.2
15:10 1018 30.06 847 25.01 -4.9 23.2 63 -10.9 12.4
15:15 1018 30.06 847 25.01 -5 23 64 -10.8 12.5
15:20 1018 30.06 847 25.01 -4.9 23.1 63 -10.9 12.3
15:25 1018 30.06 847 25.01 -4.7 23.6 61 -11.2 11.9
15:30 1018 30.06 847 25.01 -4.7 23.5 59 -11.5 11.4
15:35 1018 30.06 847 25.01 -4.7 23.6 60 -11.3 11.7
15:40 1018 30.06 847 25.01 -4.2 24.4 58 -11.3 11.6
15:45 1018 30.06 847 25.01 -3.8 25.2 56 -11.3 11.6
15:50 1018 30.06 847 25.01 -3.7 25.3 56 -11.4 11.5
15:55 1018 30.06 847 25.01 -3.7 25.3 58 -10.8 12.5
16:00 1018 30.06 847 25.01 -3.6 25.5 57 -11 12.2
16:05 1018 30.06 847 25.01 -3.5 25.6 56 -11.2 11.8
16:10 1018 30.06 847 25.01 -3 26.6 55 -10.9 12.4
16:15 1018 30.06 847 25.01 -2.9 26.8 56 -10.4 13.3
16:20 1018 30.06 847 25.01 -3.3 26.1 56 -10.7 12.7
16:25 1018 30.06 847 25.01 -3.5 25.7 58 -10.7 12.7
16:30 1018 30.06 847 25.01 -3.5 25.7 57 -10.9 12.4
16:35 1018 30.06 847 25.01 -3.6 25.6 59 -10.4 13.3
16:40 1018 30.06 847 25.01 -4.1 24.6 61 -10.5 13.1
16:45 1018 30.06 847 25.01 -4.3 24.3 62 -10.5 13.1
16:50 1018 30.06 847 25.01 -4.7 23.5 64 -10.6 12.9
16:55 1017 30.03 847 25.01 -5 23 64 -10.7 12.8
17:00 1017 30.03 847 25.01 -5.3 22.5 65 -10.8 12.6
17:05 1017 30.03 847 25.01 -5.5 22.1 67 -10.8 12.6
17:10 1017 30.03 846 24.98 -5.6 21.9 66 -10.9 12.3
17:15 1017 30.03 846 24.98 -5.7 21.8 67 -10.9 12.4
17:20 1017 30.03 846 24.98 -5.6 21.9 67 -10.8 12.6
17:25 1017 30.03 846 24.98 -5.6 21.9 68 -10.7 12.8
17:30 1017 30.03 846 24.98 -5.8 21.6 68 -10.8 12.6
17:35 1017 30.03 846 24.98 -5.9 21.4 67 -11.1 12
17:40 1017 30.03 846 24.98 -5.9 21.3 66 -11.2 11.8
17:45 1017 30.03 846 24.98 -6 21.3 66 -11.2 11.8
17:50 1017 30.03 846 24.98 -5.9 21.3 66 -11.2 11.8
17:55 1017 30.03 846 24.98 -5.8 21.6 65 -11.4 11.4
18:00 1017 30.03 846 24.98 -5.5 22.2 63 -11.4 11.6
18:05 1017 30.03 846 24.98 -5.3 22.5 62 -11.5 11.4
18:10 1017 30.03 846 24.98 -5.2 22.7 62 -11.4 11.5
18:15 1017 30.03 846 24.98 -5.2 22.6 62 -11.4 11.5
18:20 1017 30.03 846 24.98 -5.2 22.7 63 -11.1 12
18:25 1017 30.03 846 24.98 -5.3 22.5 65 -10.9 12.4
18:30 1017 30.03 846 24.98 -5.4 22.2 67 -10.7 12.8
18:35 1017 30.03 846 24.98 -5.7 21.7 68 -10.7 12.7
18:40 1017 30.03 846 24.98 -5.9 21.3 68 -10.9 12.5
18:45 1017 30.03 846 24.98 -5.9 21.3 66 -11.3 11.7
18:50 1017 30.03 846 24.98 -5.7 21.7 67 -11 12.3
18:55 1017 30.03 846 24.98 -5.8 21.5 66 -11.1 12
19:00 1017 30.03 846 24.98 -5.8 21.5 67 -11 12.2
19:05 1017 30.03 846 24.98 -5.9 21.3 68 -11 12.2
19:10 1017 30.03 846 24.98 -6 21.3 67 -11.1 12
19:15 1017 30.03 846 24.98 -5.9 21.3 68 -11 12.2
19:20 1017 30.03 846 24.98 -5.9 21.4 66 -11.2 11.8
19:25 1017 30.03 846 24.98 -5.8 21.5 66 -11.2 11.9
19:30 1016 30 846 24.98 -5.7 21.7 65 -11.3 11.6
19:35 1016 30 846 24.98 -5.5 22 65 -11.1 12.1
19:40 1016 30 846 24.98 -5.6 21.9 66 -11.1 12.1
19:45 1016 30 845 24.95 -5.8 21.6 67 -11 12.2
19:50 1016 30 845 24.95 -6.1 21 69 -10.9 12.3
19:55 1016 30 845 24.95 -6.2 20.9 68 -11.2 11.9
20:00 1016 30 845 24.95 -6.1 21 67 -11.2 11.8
20:05 1016 30 845 24.95 -6 21.1 67 -11.3 11.7
20:10 1016 30 845 24.95 -6 21.2 66 -11.3 11.6
20:15 1016 30 845 24.95 -5.8 21.5 65 -11.3 11.6
20:20 1016 30 845 24.95 -5.9 21.4 67 -11 12.2
20:25 1016 30 845 24.95 -6.1 21 69 -10.9 12.4
20:30 1016 30 845 24.95 -6.2 20.9 69 -10.9 12.4
20:35 1016 30 845 24.95 -6.1 21 69 -10.8 12.5
20:40 1016 30 845 24.95 -6.1 21.1 69 -10.8 12.6
20:45 1016 30 845 24.95 -6.1 21.1 69 -10.8 12.5
20:50 1015 29.97 845 24.95 -6 21.2 69 -10.7 12.7
20:55 1016 30 845 24.95 -5.9 21.3 70 -10.6 12.9
21:00 1016 30 845 24.95 -5.9 21.4 70 -10.5 13.1
21:05 1015 29.97 845 24.95 -5.9 21.5 70 -10.4 13.2
21:10 1015 29.97 845 24.95 -5.9 21.5 70 -10.4 13.2
21:15 1015 29.97 844 24.92 -5.7 21.7 70 -10.5 13.2
21:20 1015 29.97 844 24.92 -5.7 21.8 70 -10.3 13.4
21:25 1015 29.97 844 24.92 -5.7 21.7 70 -10.3 13.5
21:30 1015 29.97 844 24.92 -5.8 21.5 71 -10.3 13.4
21:35 1015 29.97 844 24.92 -5.8 21.5 71 -10.3 13.5
21:40 1015 29.97 844 24.92 -5.7 21.7 71 -10.2 13.7
21:45 1015 29.97 844 24.92 -5.7 21.7 71 -10.2 13.7
21:50 1015 29.97 844 24.92 -5.8 21.6 70 -10.3 13.4
21:55 1014 29.94 844 24.92 -5.7 21.8 70 -10.3 13.4
22:00 1014 29.94 844 24.92 -5.6 21.9 70 -10.2 13.6
22:05 1014 29.94 844 24.92 -5.6 22 71 -10.1 13.8
22:10 1014 29.94 844 24.92 -5.5 22.1 69 -10.3 13.5
22:15 1014 29.94 843 24.89 -5.4 22.3 69 -10.3 13.5
22:20 1014 29.94 843 24.89 -5.3 22.4 69 -10.2 13.6
22:25 1014 29.94 843 24.89 -5.3 22.4 68 -10.3 13.5
22:30 1014 29.94 843 24.89 -5.4 22.3 69 -10.2 13.6
22:35 1014 29.94 843 24.89 -5.4 22.3 68 -10.4 13.3
22:40 1014 29.94 843 24.89 -5.4 22.3 67 -10.5 13.1
22:45 1014 29.94 843 24.89 -5.3 22.4 68 -10.4 13.3
22:50 1014 29.94 843 24.89 -5.3 22.4 67 -10.5 13.1
22:55 1014 29.94 843 24.89 -5.3 22.5 67 -10.4 13.3
23:00 1014 29.94 843 24.89 -5.2 22.7 65 -10.7 12.8
23:05 1014 29.94 843 24.89 -5 22.9 65 -10.7 12.7
23:10 1014 29.94 843 24.89 -4.9 23.1 64 -10.7 12.8
23:15 1014 29.94 843 24.89 -4.9 23.1 65 -10.5 13.1
23:20 1013 29.91 843 24.89 -4.9 23.1 64 -10.7 12.7
23:25 1013 29.91 843 24.89 -4.9 23.2 65 -10.6 12.9
23:30 1013 29.91 843 24.89 -4.9 23.1 66 -10.4 13.3
23:35 1013 29.91 843 24.89 -5 23 67 -10.2 13.7
23:40 1013 29.91 843 24.89 -5 23 67 -10.2 13.6
23:45 1013 29.91 843 24.89 -5 23 67 -10.2 13.7
23:50 1013 29.91 843 24.89 -5 23 69 -9.9 14.1
23:55 1013 29.91 843 24.89 -5.1 22.9 70 -9.8 14.4
24:00 1013 29.91 843 24.89 -5.1 22.8 71 -9.6 14.6